createdAt,value
2023-01-15T00:02:12.974Z,66.27
2023-01-15T00:05:08.586Z,66.35
2023-01-15T00:07:52.554Z,66.40
2023-01-15T00:10:45.372Z,66.51
2023-01-15T00:13:38.097Z,66.24
2023-01-15T00:16:33.532Z,66.16
2023-01-15T00:19:47.433Z,66.17
2023-01-15T00:22:33.778Z,66.14
2023-01-15T00:25:43.814Z,66.18
2023-01-15T00:28:36.595Z,66.24
2023-01-15T00:31:30.300Z,66.14
2023-01-15T00:34:23.909Z,66.20
2023-01-15T00:37:17.405Z,66.30
2023-01-15T00:40:12.335Z,66.43
2023-01-15T00:43:05.202Z,66.27
2023-01-15T00:45:51.425Z,66.17
2023-01-15T00:48:44.204Z,66.25
2023-01-15T00:51:31.342Z,66.15
2023-01-15T00:54:24.236Z,65.96
2023-01-15T00:57:18.302Z,65.98
2023-01-15T01:00:13.393Z,66.06
2023-01-15T01:03:07.488Z,66.18
2023-01-15T01:06:04.906Z,66.18
2023-01-15T01:08:58.386Z,66.04
2023-01-15T01:11:52.251Z,65.96
2023-01-15T01:14:46.596Z,65.94
2023-01-15T01:17:40.360Z,65.88
2023-01-15T01:20:33.614Z,65.82
2023-01-15T01:23:27.490Z,65.78
2023-01-15T01:26:22.122Z,65.76
2023-01-15T01:29:17.940Z,65.73
2023-01-15T01:32:11.320Z,65.79
2023-01-15T01:35:04.647Z,65.88
2023-01-15T01:38:00.291Z,66.00
2023-01-15T01:40:53.612Z,66.10
2023-01-15T01:44:03.036Z,66.01
2023-01-15T01:46:51.673Z,65.65
2023-01-15T01:49:39.455Z,65.60
2023-01-15T01:52:38.134Z,65.89
2023-01-15T01:55:32.269Z,66.05
2023-01-15T01:58:30.018Z,66.00
2023-01-15T02:01:25.604Z,65.85
2023-01-15T02:04:19.825Z,65.88
2023-01-15T02:07:12.725Z,65.86
2023-01-15T02:09:57.817Z,65.73
2023-01-15T02:12:56.720Z,65.60
2023-01-15T02:15:56.837Z,65.36
2023-01-15T02:18:55.423Z,65.28
2023-01-15T02:21:54.188Z,65.20
2023-01-15T02:25:15.881Z,65.20
2023-01-15T02:28:18.096Z,65.03
2023-01-15T02:31:16.913Z,64.93
2023-01-15T02:34:14.962Z,64.92
2023-01-15T02:37:07.672Z,64.90
2023-01-15T02:40:04.426Z,64.96
2023-01-15T02:42:59.226Z,65.16
2023-01-15T02:45:55.485Z,65.68
2023-01-15T02:48:53.928Z,65.89
2023-01-15T02:51:52.860Z,65.30
2023-01-15T02:54:42.128Z,65.20
2023-01-15T02:57:38.771Z,65.38
2023-01-15T03:00:39.649Z,65.64
2023-01-15T03:03:43.561Z,65.50
2023-01-15T03:06:42.864Z,65.75
2023-01-15T03:09:36.039Z,65.73
2023-01-15T03:12:32.232Z,65.48
2023-01-15T03:15:40.750Z,65.35
2023-01-15T03:18:56.568Z,65.36
2023-01-15T03:21:55.028Z,65.48
2023-01-15T03:24:52.582Z,65.59
2023-01-15T03:27:45.585Z,65.59
2023-01-15T03:30:38.992Z,65.55
2023-01-15T03:33:32.437Z,65.60
2023-01-15T03:36:25.248Z,65.80
2023-01-15T03:39:18.557Z,65.66
2023-01-15T03:42:21.575Z,65.45
2023-01-15T03:45:20.607Z,65.39
2023-01-15T03:48:20.812Z,65.05
2023-01-15T03:51:19.907Z,64.81
2023-01-15T03:54:23.052Z,64.83
2023-01-15T03:57:32.558Z,64.53
2023-01-15T04:00:31.676Z,64.65
2023-01-15T04:03:26.718Z,64.46
2023-01-15T04:06:22.608Z,64.36
2023-01-15T04:09:17.137Z,64.39
2023-01-15T04:12:11.351Z,64.26
2023-01-15T04:15:04.531Z,64.33
2023-01-15T04:17:57.563Z,63.81
2023-01-15T04:20:50.909Z,63.52
2023-01-15T04:23:44.522Z,63.22
2023-01-15T04:26:37.290Z,62.81
2023-01-15T04:29:29.266Z,62.73
2023-01-15T04:32:22.396Z,62.78
2023-01-15T04:35:16.080Z,62.66
2023-01-15T04:38:09.007Z,62.49
2023-01-15T04:41:23.000Z,62.45
2023-01-15T04:44:15.789Z,62.36
2023-01-15T04:47:09.100Z,62.25
2023-01-15T04:50:02.096Z,62.08
2023-01-15T04:52:55.202Z,62.11
2023-01-15T04:55:47.937Z,62.19
2023-01-15T04:58:40.772Z,62.15
2023-01-15T05:01:33.685Z,62.13
2023-01-15T05:04:26.574Z,62.17
2023-01-15T05:07:20.050Z,62.07
2023-01-15T05:10:13.871Z,62.11
2023-01-15T05:13:06.748Z,62.17
2023-01-15T05:16:21.240Z,62.12
2023-01-15T05:19:08.789Z,62.27
2023-01-15T05:22:02.154Z,62.28
2023-01-15T05:24:54.939Z,62.30
2023-01-15T05:27:47.670Z,62.14
2023-01-15T05:30:40.525Z,61.58
2023-01-15T05:33:33.268Z,62.22
2023-01-15T05:36:28.516Z,61.85
2023-01-15T05:39:21.315Z,61.89
2023-01-15T05:42:14.169Z,62.06
2023-01-15T05:45:08.434Z,61.86
2023-01-15T05:48:01.188Z,61.85
2023-01-15T05:50:53.899Z,62.43
2023-01-15T05:53:37.649Z,62.21
2023-01-15T05:56:30.604Z,61.68
2023-01-15T05:59:25.507Z,61.28
2023-01-15T06:02:38.359Z,61.31
2023-01-15T06:05:32.259Z,61.35
2023-01-15T06:08:25.506Z,61.74
2023-01-15T06:11:12.462Z,62.08
2023-01-15T06:14:05.297Z,62.69
2023-01-15T06:16:46.731Z,60.85
2023-01-15T06:19:40.651Z,58.33
2023-01-15T06:22:33.650Z,57.61
2023-01-15T06:25:26.476Z,58.53
2023-01-15T06:28:19.549Z,60.59
2023-01-15T06:31:15.677Z,63.55
2023-01-15T06:34:01.127Z,64.66
2023-01-15T06:36:54.821Z,63.23
2023-01-15T06:39:47.615Z,63.46
2023-01-15T06:42:57.438Z,62.59
2023-01-15T06:46:22.166Z,61.80
2023-01-15T06:48:55.475Z,61.16
2023-01-15T06:51:48.264Z,60.91
2023-01-15T06:54:34.081Z,60.40
2023-01-15T06:57:29.302Z,60.30
2023-01-15T07:00:23.355Z,60.53
2023-01-15T07:03:09.093Z,60.70
2023-01-15T07:06:06.710Z,60.91
2023-01-15T07:08:52.156Z,60.81
2023-01-15T07:11:50.636Z,60.94
2023-01-15T07:14:43.455Z,60.99
2023-01-15T07:17:36.400Z,60.83
2023-01-15T07:20:29.437Z,60.84
2023-01-15T07:23:05.083Z,61.09
2023-01-15T07:25:40.065Z,61.14
2023-01-15T07:28:32.811Z,61.47
2023-01-15T07:31:25.549Z,61.52
2023-01-15T07:34:18.697Z,62.83
2023-01-15T07:37:11.995Z,62.31
2023-01-15T07:39:58.078Z,59.85
2023-01-15T07:43:08.257Z,56.46
2023-01-15T07:46:18.653Z,56.19
2023-01-15T07:49:24.728Z,57.31
2023-01-15T07:52:19.895Z,58.53
2023-01-15T07:55:13.922Z,60.58
2023-01-15T07:58:07.160Z,61.68
2023-01-15T08:01:00.462Z,64.02
2023-01-15T08:03:53.859Z,64.42
2023-01-15T08:06:46.748Z,63.13
2023-01-15T08:09:39.863Z,62.41
2023-01-15T08:12:50.416Z,61.97
2023-01-15T08:15:45.623Z,61.59
2023-01-15T08:18:31.368Z,61.46
2023-01-15T08:21:23.789Z,61.10
2023-01-15T08:24:16.597Z,61.06
2023-01-15T08:27:09.535Z,60.60
2023-01-15T08:30:02.613Z,60.55
2023-01-15T08:33:00.386Z,60.80
2023-01-15T08:35:47.079Z,60.63
2023-01-15T08:38:38.758Z,60.59
2023-01-15T08:41:30.492Z,62.04
2023-01-15T08:44:23.930Z,61.71
2023-01-15T08:47:09.737Z,60.68
2023-01-15T08:49:55.256Z,61.46
2023-01-15T08:52:50.291Z,57.56
2023-01-15T08:55:41.914Z,55.81
2023-01-15T08:58:31.854Z,56.56
2023-01-15T09:01:10.110Z,58.09
2023-01-15T09:04:02.086Z,58.97
2023-01-15T09:06:55.651Z,59.49
2023-01-15T09:09:39.618Z,60.50
2023-01-15T09:12:31.709Z,61.71
2023-01-15T09:15:19.262Z,62.16
2023-01-15T09:18:13.165Z,64.89
2023-01-15T09:20:58.028Z,64.79
2023-01-15T09:23:50.964Z,62.56
2023-01-15T09:26:44.061Z,58.83
2023-01-15T09:29:37.048Z,57.17
2023-01-15T09:32:17.799Z,57.70
2023-01-15T09:35:05.936Z,58.65
2023-01-15T09:38:00.993Z,59.66
2023-01-15T09:40:42.120Z,60.27
2023-01-15T09:43:51.082Z,60.90
2023-01-15T09:46:47.571Z,61.28
2023-01-15T09:49:59.107Z,61.55
2023-01-15T09:53:12.130Z,61.68
2023-01-15T09:56:06.164Z,62.00
2023-01-15T09:59:01.164Z,62.03
2023-01-15T10:01:55.146Z,62.19
2023-01-15T10:04:53.645Z,62.22
2023-01-15T10:07:36.017Z,62.31
2023-01-15T10:10:34.130Z,62.59
2023-01-15T10:13:28.947Z,65.16
2023-01-15T10:16:23.387Z,63.25
2023-01-15T10:19:12.091Z,60.47
2023-01-15T10:22:12.909Z,57.13
2023-01-15T10:24:59.935Z,55.27
2023-01-15T10:27:54.805Z,55.76
2023-01-15T10:30:49.037Z,56.26
2023-01-15T10:33:39.728Z,57.02
2023-01-15T10:36:22.961Z,58.09
2023-01-15T10:39:24.267Z,58.84
2023-01-15T10:42:33.153Z,59.42
2023-01-15T10:45:30.005Z,59.73
2023-01-15T10:48:23.155Z,59.93
2023-01-15T10:51:19.205Z,60.39
2023-01-15T10:54:09.341Z,60.29
2023-01-15T10:57:11.728Z,60.29
2023-01-15T11:00:08.755Z,60.56
2023-01-15T11:03:07.683Z,60.51
2023-01-15T11:06:02.281Z,60.63
2023-01-15T11:09:12.856Z,60.61
2023-01-15T11:12:41.027Z,60.98
2023-01-15T11:15:51.835Z,61.34
2023-01-15T11:19:04.461Z,61.50
2023-01-15T11:21:58.082Z,61.43
2023-01-15T11:25:01.123Z,61.42
2023-01-15T11:27:56.673Z,61.41
2023-01-15T11:30:56.512Z,61.46
2023-01-15T11:33:47.065Z,61.31
2023-01-15T11:36:40.068Z,61.59
2023-01-15T11:39:33.550Z,61.65
2023-01-15T11:42:37.722Z,61.60
2023-01-15T11:45:47.785Z,61.68
2023-01-15T11:48:48.028Z,61.72
2023-01-15T11:51:23.912Z,61.57
2023-01-15T11:54:19.245Z,61.68
2023-01-15T11:57:13.372Z,61.83
2023-01-15T11:59:53.335Z,61.91
2023-01-15T12:02:38.466Z,61.90
2023-01-15T12:05:20.848Z,62.11
2023-01-15T12:08:25.081Z,62.43
2023-01-15T12:11:46.418Z,64.89
2023-01-15T12:14:54.641Z,64.65
2023-01-15T12:18:07.663Z,62.05
2023-01-15T12:21:04.709Z,58.73
2023-01-15T12:24:14.521Z,56.68
2023-01-15T12:27:24.710Z,57.07
2023-01-15T12:30:20.880Z,58.31
2023-01-15T12:33:37.206Z,59.13
2023-01-15T12:36:33.757Z,60.12
2023-01-15T12:39:32.176Z,60.57
2023-01-15T12:42:44.273Z,60.90
2023-01-15T12:45:41.549Z,61.65
2023-01-15T12:48:41.023Z,61.99
2023-01-15T12:51:28.811Z,63.52
2023-01-15T12:54:30.944Z,64.66
2023-01-15T12:57:32.607Z,62.98
2023-01-15T13:00:33.154Z,61.42
2023-01-15T13:03:30.333Z,58.62
2023-01-15T13:06:28.827Z,56.88
2023-01-15T13:09:10.584Z,57.77
2023-01-15T13:12:04.971Z,58.89
2023-01-15T13:14:58.303Z,60.11
2023-01-15T13:17:39.476Z,60.84
2023-01-15T13:20:48.916Z,61.19
2023-01-15T13:24:02.894Z,63.65
2023-01-15T13:27:12.198Z,63.88
2023-01-15T13:30:16.947Z,62.45
2023-01-15T13:33:18.042Z,61.89
2023-01-15T13:35:53.618Z,61.64
2023-01-15T13:38:32.409Z,63.51
2023-01-15T13:41:12.247Z,63.51
2023-01-15T13:44:04.304Z,61.68
2023-01-15T13:47:06.466Z,57.05
2023-01-15T13:49:51.007Z,55.74
2023-01-15T13:52:44.168Z,56.80
2023-01-15T13:55:33.633Z,58.39
2023-01-15T13:58:27.441Z,59.49
2023-01-15T14:01:34.210Z,60.70
2023-01-15T14:04:39.047Z,61.83
2023-01-15T14:07:38.572Z,64.30
2023-01-15T14:10:34.950Z,64.52
2023-01-15T14:13:54.996Z,63.22
2023-01-15T14:17:00.157Z,65.24
2023-01-15T14:20:22.273Z,63.91
2023-01-15T14:23:40.011Z,60.64
2023-01-15T14:26:33.785Z,59.94
2023-01-15T14:29:47.215Z,58.59
2023-01-15T14:32:54.300Z,58.58
2023-01-15T14:35:50.587Z,59.91
2023-01-15T14:38:52.752Z,61.07
2023-01-15T14:41:59.973Z,63.69
2023-01-15T14:45:03.297Z,66.36
2023-01-15T14:47:58.008Z,68.16
2023-01-15T14:50:52.795Z,66.00
2023-01-15T14:53:49.809Z,64.28
2023-01-15T14:56:47.758Z,62.92
2023-01-15T14:59:50.101Z,61.72
2023-01-15T15:02:40.400Z,61.18
2023-01-15T15:05:36.599Z,61.80
2023-01-15T15:08:34.020Z,61.45
2023-01-15T15:11:52.947Z,60.31
2023-01-15T15:14:27.756Z,61.10
2023-01-15T15:17:31.105Z,61.47
2023-01-15T15:20:31.561Z,61.01
2023-01-15T15:23:29.946Z,60.74
2023-01-15T15:26:28.485Z,60.73
2023-01-15T15:29:22.614Z,61.38
2023-01-15T15:32:19.106Z,60.28
2023-01-15T15:35:27.578Z,60.77
2023-01-15T15:38:20.889Z,60.69
2023-01-15T15:41:07.838Z,61.53
2023-01-15T15:44:04.740Z,61.86
2023-01-15T15:47:14.888Z,61.84
2023-01-15T15:50:08.991Z,62.31
2023-01-15T15:53:04.625Z,61.69
2023-01-15T15:55:59.175Z,61.41
2023-01-15T15:58:52.244Z,62.10
2023-01-15T16:01:45.637Z,62.01
2023-01-15T16:04:38.502Z,62.17
2023-01-15T16:07:33.843Z,62.40
2023-01-15T16:10:21.041Z,62.51
2023-01-15T16:12:57.755Z,62.82
2023-01-15T16:15:35.891Z,62.86
2023-01-15T16:18:25.485Z,63.15
2023-01-15T16:21:03.003Z,63.04
2023-01-15T16:24:03.726Z,64.06
2023-01-15T16:26:50.759Z,64.12
2023-01-15T16:29:48.913Z,63.85
2023-01-15T16:32:33.114Z,63.19
2023-01-15T16:35:27.103Z,62.92
2023-01-15T16:38:24.273Z,62.73
2023-01-15T16:41:27.629Z,62.26
2023-01-15T16:44:37.832Z,62.27
2023-01-15T16:47:26.592Z,61.97
2023-01-15T16:50:32.428Z,62.02
2023-01-15T16:53:41.291Z,61.33
2023-01-15T16:56:54.848Z,60.86
2023-01-15T17:00:00.583Z,61.72
2023-01-15T17:02:48.692Z,62.17
2023-01-15T17:05:41.852Z,63.28
2023-01-15T17:08:32.513Z,63.19
2023-01-15T17:11:07.617Z,62.52
2023-01-15T17:13:51.800Z,62.36
2023-01-15T17:16:46.514Z,62.69
2023-01-15T17:19:39.360Z,63.31
2023-01-15T17:22:26.678Z,62.50
2023-01-15T17:25:28.003Z,62.18
2023-01-15T17:28:13.392Z,62.01
2023-01-15T17:31:06.397Z,61.74
2023-01-15T17:33:59.184Z,61.88
2023-01-15T17:36:51.937Z,63.48
2023-01-15T17:39:44.099Z,62.89
2023-01-15T17:42:36.874Z,62.75
2023-01-15T17:45:31.469Z,63.14
2023-01-15T17:48:24.270Z,62.52
2023-01-15T17:51:18.671Z,62.00
2023-01-15T17:54:11.447Z,62.27
2023-01-15T17:57:01.193Z,62.20
2023-01-15T18:00:11.616Z,62.30
2023-01-15T18:03:23.930Z,62.39
2023-01-15T18:06:11.292Z,62.56
2023-01-15T18:09:08.946Z,62.56
2023-01-15T18:12:01.851Z,62.88
2023-01-15T18:14:54.822Z,63.29
2023-01-15T18:17:47.926Z,63.33
2023-01-15T18:20:33.936Z,63.04
2023-01-15T18:23:27.166Z,63.77
2023-01-15T18:26:21.223Z,63.31
2023-01-15T18:29:06.837Z,63.22
2023-01-15T18:31:59.841Z,63.19
2023-01-15T18:34:34.927Z,62.49
2023-01-15T18:37:08.427Z,61.91
2023-01-15T18:40:01.381Z,61.61
2023-01-15T18:43:14.074Z,61.30
2023-01-15T18:46:27.664Z,61.34
2023-01-15T18:49:38.790Z,61.91
2023-01-15T18:52:42.068Z,61.41
2023-01-15T18:55:34.943Z,61.31
2023-01-15T18:58:21.925Z,61.15
2023-01-15T19:01:14.961Z,61.27
2023-01-15T19:04:22.362Z,61.33
2023-01-15T19:07:15.226Z,61.79
2023-01-15T19:10:09.766Z,61.81
2023-01-15T19:13:03.493Z,62.06
2023-01-15T19:16:11.024Z,62.24
2023-01-15T19:19:04.015Z,62.15
2023-01-15T19:22:35.119Z,62.20
2023-01-15T19:25:30.382Z,62.07
2023-01-15T19:28:17.938Z,61.98
2023-01-15T19:31:29.542Z,62.71
2023-01-15T19:34:33.532Z,62.39
2023-01-15T19:37:20.526Z,62.34
2023-01-15T19:39:56.281Z,61.80
2023-01-15T19:43:07.208Z,62.14
2023-01-15T19:46:17.298Z,61.95
2023-01-15T19:49:35.883Z,61.67
2023-01-15T19:52:38.687Z,61.23
2023-01-15T19:55:33.216Z,61.73
2023-01-15T19:58:26.082Z,61.82
2023-01-15T20:01:19.511Z,61.05
2023-01-15T20:04:15.048Z,61.12
2023-01-15T20:07:08.946Z,61.15
2023-01-15T20:10:03.104Z,60.70
2023-01-15T20:13:07.076Z,60.69
2023-01-15T20:16:01.975Z,60.51
2023-01-15T20:18:51.974Z,60.85
2023-01-15T20:21:58.949Z,60.95
2023-01-15T20:24:51.751Z,60.63
2023-01-15T20:27:44.708Z,61.41
2023-01-15T20:30:37.511Z,60.99
2023-01-15T20:33:30.347Z,60.25
2023-01-15T20:36:24.131Z,61.42
2023-01-15T20:39:18.413Z,61.21
2023-01-15T20:42:30.067Z,60.71
2023-01-15T20:45:24.546Z,61.58
2023-01-15T20:48:34.361Z,61.03
2023-01-15T20:51:29.654Z,62.84
2023-01-15T20:54:02.320Z,62.30
2023-01-15T20:56:55.584Z,61.59
2023-01-15T20:59:48.403Z,61.32
2023-01-15T21:02:42.419Z,61.12
2023-01-15T21:05:29.392Z,61.88
2023-01-15T21:08:21.716Z,61.45
2023-01-15T21:10:56.611Z,60.87
2023-01-15T21:13:32.262Z,60.73
2023-01-15T21:16:25.315Z,60.20
2023-01-15T21:19:18.130Z,60.05
2023-01-15T21:22:11.204Z,60.67
2023-01-15T21:24:54.602Z,60.79
2023-01-15T21:27:47.926Z,60.88
2023-01-15T21:30:42.584Z,60.30
2023-01-15T21:33:35.446Z,59.98
2023-01-15T21:36:21.455Z,57.72
2023-01-15T21:39:19.125Z,56.00
2023-01-15T21:42:34.389Z,57.30
2023-01-15T21:45:28.716Z,58.91
2023-01-15T21:48:04.364Z,63.67
2023-01-15T21:50:55.967Z,66.70
2023-01-15T21:53:48.862Z,66.45
2023-01-15T21:56:41.877Z,65.97
2023-01-15T21:59:35.593Z,65.49
2023-01-15T22:02:23.343Z,65.04
2023-01-15T22:05:20.120Z,64.99
2023-01-15T22:08:19.505Z,65.17
2023-01-15T22:11:13.730Z,65.51
2023-01-15T22:14:06.579Z,65.77
2023-01-15T22:17:02.109Z,66.01
2023-01-15T22:19:55.206Z,66.31
2023-01-15T22:22:48.898Z,66.32
2023-01-15T22:25:43.430Z,69.20
2023-01-15T22:28:36.312Z,68.48
2023-01-15T22:31:28.250Z,66.75
2023-01-15T22:34:22.591Z,65.14
2023-01-15T22:37:08.551Z,63.60
2023-01-15T22:40:05.143Z,62.98
2023-01-15T22:42:56.661Z,62.20
2023-01-15T22:45:41.268Z,61.62
2023-01-15T22:48:25.690Z,61.94
2023-01-15T22:51:12.744Z,61.67
2023-01-15T22:53:59.815Z,61.03
2023-01-15T22:56:54.661Z,61.14
2023-01-15T22:59:47.915Z,60.01
2023-01-15T23:02:56.088Z,57.49
2023-01-15T23:05:48.999Z,56.40
2023-01-15T23:08:42.042Z,57.93
2023-01-15T23:11:34.906Z,59.58
2023-01-15T23:14:22.887Z,63.90
2023-01-15T23:17:15.761Z,66.91
2023-01-15T23:20:12.109Z,67.76
2023-01-15T23:23:04.997Z,66.91
2023-01-15T23:25:57.792Z,65.94
2023-01-15T23:28:43.303Z,64.97
2023-01-15T23:31:37.007Z,64.03
2023-01-15T23:34:29.852Z,63.37
2023-01-15T23:37:22.900Z,62.90
2023-01-15T23:40:16.755Z,62.36
2023-01-15T23:43:28.459Z,61.62
2023-01-15T23:46:35.523Z,61.37
2023-01-15T23:49:21.177Z,62.32
2023-01-15T23:52:15.590Z,61.39
2023-01-15T23:55:09.130Z,61.35
2023-01-15T23:58:02.801Z,60.62
